Time;durP1;ratioP1;P1;durP2;ratioP2;P2;SDS_P1;SDS_P2;PMS_P1;PMS_P2;Temp;Humidity;BMP_temperature;BMP_pressure;BME280_temperature;BME280_humidity;BME280_pressure;Samples;Min_cycle;Max_cycle;Signal;HPM_P1;HPM_P2
2023/05/26 00:02:24;;;;;;;38.67;6.80;;;8.40;99.90;;;;;;5052696;28;20051;-65
2023/05/26 00:04:50;;;;;;;41.50;7.03;;;8.40;99.90;;;;;;5057934;28;20045;-66
2023/05/26 00:07:16;;;;;;;31.45;5.93;;;8.30;99.90;;;;;;5042904;28;20036;-66
2023/05/26 00:09:42;;;;;;;36.53;6.50;;;8.30;99.90;;;;;;5043824;28;20040;-68
2023/05/26 00:12:08;;;;;;;33.97;6.30;;;8.30;99.90;;;;;;5060497;28;20120;-64
2023/05/26 00:14:34;;;;;;;36.17;6.35;;;8.30;99.90;;;;;;5043665;28;20183;-64
2023/05/26 00:16:59;;;;;;;35.10;6.53;;;8.20;99.90;;;;;;5044995;28;20551;-65
2023/05/26 00:19:25;;;;;;;25.40;6.47;;;8.20;99.90;;;;;;5043727;28;20041;-64
2023/05/26 00:21:51;;;;;;;33.30;6.03;;;8.20;99.90;;;;;;5041564;28;20617;-62
2023/05/26 00:24:17;;;;;;;27.48;5.78;;;8.20;99.90;;;;;;5054354;28;20115;-64
2023/05/26 00:26:42;;;;;;;38.67;7.43;;;8.10;99.90;;;;;;5063872;28;20123;-63
2023/05/26 00:29:08;;;;;;;40.33;6.50;;;8.10;99.90;;;;;;5056079;28;20064;-65
2023/05/26 00:31:34;;;;;;;29.88;6.20;;;8.10;99.90;;;;;;5043713;28;20060;-64
2023/05/26 00:34:00;;;;;;;34.35;6.45;;;8.10;99.90;;;;;;5044336;28;20045;-63
2023/05/26 00:36:29;;;;;;;36.03;6.78;;;8.10;99.90;;;;;;5044959;28;20045;-67
2023/05/26 00:38:54;;;;;;;33.58;6.50;;;8.10;99.90;;;;;;5043967;28;20049;-63
2023/05/26 00:41:20;;;;;;;34.13;5.40;;;8.10;99.90;;;;;;5060489;28;20501;-66
2023/05/26 00:43:46;;;;;;;38.65;7.07;;;8.10;99.90;;;;;;5043622;28;20048;-62
2023/05/26 00:46:11;;;;;;;33.83;6.80;;;8.10;99.90;;;;;;5043418;28;20049;-65
2023/05/26 00:48:37;;;;;;;30.58;6.20;;;8.10;99.90;;;;;;5043801;28;20432;-62
2023/05/26 00:51:02;;;;;;;37.17;6.40;;;8.20;99.90;;;;;;5059980;28;20033;-63
2023/05/26 00:53:28;;;;;;;33.05;6.15;;;8.20;99.90;;;;;;5043016;28;20072;-62
2023/05/26 00:55:55;;;;;;;39.50;6.72;;;8.20;99.90;;;;;;5044978;28;20060;-65
2023/05/26 00:58:21;;;;;;;41.13;7.25;;;8.20;99.90;;;;;;5060176;28;20195;-65
2023/05/26 01:00:46;;;;;;;34.75;6.32;;;8.20;99.90;;;;;;5054066;28;20052;-62
2023/05/26 01:03:14;;;;;;;36.05;6.35;;;8.20;99.90;;;;;;5047389;28;20044;-64
2023/05/26 01:05:40;;;;;;;33.72;7.18;;;8.10;99.90;;;;;;5053577;28;20338;-63
2023/05/26 01:08:06;;;;;;;39.35;6.43;;;8.10;99.90;;;;;;5045016;28;21002;-63
2023/05/26 01:10:32;;;;;;;37.05;6.70;;;8.10;99.90;;;;;;5043373;28;20719;-64
2023/05/26 01:13:00;;;;;;;44.25;7.28;;;8.10;99.90;;;;;;5043746;28;20622;-65
2023/05/26 01:15:55;;;;;;;33.33;6.93;;;8.00;99.90;;;;;;5042541;28;20555;-64
2023/05/26 01:18:42;;;;;;;41.70;6.97;;;8.10;99.90;;;;;;5040991;28;20060;-63
2023/05/26 01:21:13;;;;;;;34.45;6.50;;;8.00;99.90;;;;;;5059555;28;20656;-63
2023/05/26 01:23:56;;;;;;;34.67;6.60;;;8.10;99.90;;;;;;5047126;28;20435;-64
2023/05/26 01:27:01;;;;;;;37.45;6.95;;;8.00;99.90;;;;;;5047527;28;20063;-65
2023/05/26 01:29:29;;;;;;;44.50;7.35;;;8.00;99.90;;;;;;5048745;28;20506;-64
2023/05/26 01:32:08;;;;;;;37.58;6.60;;;8.00;99.90;;;;;;5046353;28;20045;-65
2023/05/26 01:34:34;;;;;;;41.42;7.82;;;8.00;99.90;;;;;;5047098;28;20041;-65
2023/05/26 01:37:00;;;;;;;36.92;7.30;;;8.00;99.90;;;;;;5048253;28;20039;-65
2023/05/26 01:39:26;;;;;;;29.77;5.80;;;8.00;99.90;;;;;;5047148;28;20047;-64
2023/05/26 01:42:08;;;;;;;39.60;6.72;;;8.00;99.90;;;;;;5047521;28;20087;-64
2023/05/26 01:44:44;;;;;;;35.40;7.50;;;8.00;99.90;;;;;;5046832;28;20048;-66
2023/05/26 01:47:13;;;;;;;37.53;7.18;;;8.00;99.90;;;;;;5046554;28;20095;-65
2023/05/26 01:49:43;;;;;;;35.33;6.10;;;7.90;99.90;;;;;;5048544;28;20481;-63
2023/05/26 01:52:12;;;;;;;38.05;6.40;;;7.90;99.90;;;;;;5046486;28;20037;-65
2023/05/26 01:54:50;;;;;;;31.90;7.60;;;7.90;99.90;;;;;;5046618;28;20072;-63
2023/05/26 01:57:16;;;;;;;34.92;6.45;;;7.90;99.90;;;;;;5046515;28;20132;-64
2023/05/26 01:59:42;;;;;;;38.65;7.10;;;7.90;99.90;;;;;;5047818;28;20059;-64
2023/05/26 02:02:08;;;;;;;35.35;6.22;;;7.90;99.90;;;;;;5046381;28;20500;-65
2023/05/26 02:04:34;;;;;;;32.17;6.45;;;7.90;99.90;;;;;;5046468;28;20664;-65
2023/05/26 02:07:02;;;;;;;33.08;5.70;;;7.90;99.90;;;;;;5046268;28;20049;-63
2023/05/26 02:09:30;;;;;;;26.65;6.35;;;7.80;99.90;;;;;;5047701;28;20037;-64
2023/05/26 02:11:55;;;;;;;27.00;6.32;;;7.80;99.90;;;;;;5045986;28;20033;-62
2023/05/26 02:14:21;;;;;;;33.40;6.05;;;7.80;99.90;;;;;;5046170;28;20083;-62
2023/05/26 02:16:47;;;;;;;31.40;6.25;;;7.80;99.90;;;;;;5046410;28;20522;-66
2023/05/26 02:19:13;;;;;;;35.58;6.45;;;7.80;99.90;;;;;;5046629;28;20060;-66
2023/05/26 02:21:40;;;;;;;33.08;6.45;;;7.80;99.90;;;;;;5047221;28;20435;-66
2023/05/26 02:24:05;;;;;;;39.80;6.57;;;7.80;99.90;;;;;;5045947;28;20488;-63
2023/05/26 02:26:31;;;;;;;42.63;7.47;;;7.80;99.90;;;;;;5046000;28;20083;-66
2023/05/26 02:28:57;;;;;;;30.55;7.70;;;7.70;99.90;;;;;;5045944;28;20080;-66
2023/05/26 02:31:23;;;;;;;38.35;6.90;;;7.70;99.90;;;;;;5045571;28;20045;-66
2023/05/26 02:33:50;;;;;;;34.47;6.25;;;7.70;99.90;;;;;;5045100;28;20033;-64
2023/05/26 02:36:15;;;;;;;40.92;6.40;;;7.70;99.90;;;;;;5043695;28;20041;-65
2023/05/26 02:38:42;;;;;;;31.15;6.13;;;7.70;99.90;;;;;;5046020;28;20044;-63
2023/05/26 02:41:08;;;;;;;33.80;6.22;;;7.70;99.90;;;;;;5045669;28;20048;-64
2023/05/26 02:43:34;;;;;;;28.65;6.07;;;7.70;99.90;;;;;;5046429;28;20068;-64
2023/05/26 02:46:00;;;;;;;28.92;6.53;;;7.70;99.90;;;;;;5045021;28;20082;-64
2023/05/26 02:48:26;;;;;;;30.55;6.43;;;7.70;99.90;;;;;;5045945;28;20044;-65
2023/05/26 02:50:54;;;;;;;35.88;6.88;;;7.70;99.90;;;;;;5043723;28;20041;-63
2023/05/26 02:53:21;;;;;;;39.90;6.50;;;7.70;99.90;;;;;;5057594;28;20036;-63
2023/05/26 02:55:47;;;;;;;31.27;6.30;;;7.70;99.90;;;;;;5065549;28;20041;-64
2023/05/26 02:58:13;;;;;;;35.13;6.22;;;7.70;99.90;;;;;;5064853;28;20053;-65
2023/05/26 03:00:39;;;;;;;35.00;6.70;;;7.70;99.90;;;;;;5061148;28;20539;-64
2023/05/26 03:03:05;;;;;;;34.28;6.95;;;7.70;99.90;;;;;;5078618;28;20394;-65
2023/05/26 03:05:31;;;;;;;35.03;7.40;;;7.70;99.90;;;;;;5064456;28;20051;-66
2023/05/26 03:07:57;;;;;;;37.53;6.95;;;7.60;99.90;;;;;;5054544;28;20656;-63
2023/05/26 03:10:25;;;;;;;37.55;6.72;;;7.60;99.90;;;;;;5045203;28;20044;-66
2023/05/26 03:12:51;;;;;;;34.85;6.47;;;7.60;99.90;;;;;;5046336;28;20118;-63
2023/05/26 03:15:17;;;;;;;36.35;7.30;;;7.60;99.90;;;;;;5044322;28;20037;-68
2023/05/26 03:17:42;;;;;;;47.67;7.00;;;7.60;99.90;;;;;;5045519;28;20103;-64
2023/05/26 03:20:08;;;;;;;37.80;6.05;;;7.60;99.90;;;;;;5068741;28;20048;-66
2023/05/26 03:22:34;;;;;;;39.53;6.65;;;7.60;99.90;;;;;;5056147;28;20048;-66
2023/05/26 03:24:59;;;;;;;37.10;7.57;;;7.60;99.90;;;;;;5045023;28;20451;-66
2023/05/26 03:27:26;;;;;;;32.95;6.88;;;7.60;99.90;;;;;;5046138;28;20467;-66
2023/05/26 03:29:52;;;;;;;33.25;6.55;;;7.60;99.90;;;;;;5044894;28;20071;-64
2023/05/26 03:32:18;;;;;;;41.80;6.75;;;7.60;99.90;;;;;;5045584;28;20037;-64
2023/05/26 03:34:44;;;;;;;33.17;6.63;;;7.60;99.90;;;;;;5045079;28;20033;-65
2023/05/26 03:37:12;;;;;;;32.83;6.45;;;7.60;99.90;;;;;;5042767;28;20033;-63
2023/05/26 03:39:38;;;;;;;38.97;6.82;;;7.60;99.90;;;;;;5044925;28;20821;-64
2023/05/26 03:42:05;;;;;;;37.90;6.85;;;7.60;99.90;;;;;;5045192;28;20077;-63
2023/05/26 03:44:31;;;;;;;28.17;7.35;;;7.60;99.90;;;;;;5060621;28;20127;-65
2023/05/26 03:46:57;;;;;;;42.70;7.10;;;7.60;99.90;;;;;;5043911;28;20132;-66
2023/05/26 03:49:22;;;;;;;27.20;6.28;;;7.60;99.90;;;;;;5044598;28;20504;-64
2023/05/26 03:51:48;;;;;;;41.45;6.90;;;7.60;99.90;;;;;;5031593;28;20119;-67
2023/05/26 03:54:14;;;;;;;34.38;6.28;;;7.60;99.90;;;;;;5046029;28;20262;-63
2023/05/26 03:56:39;;;;;;;30.45;6.55;;;7.70;99.90;;;;;;5045703;28;20690;-63
2023/05/26 03:59:05;;;;;;;34.38;6.35;;;7.70;99.90;;;;;;5043957;28;20095;-63
2023/05/26 04:01:30;;;;;;;40.42;6.05;;;7.80;99.90;;;;;;5063643;28;20040;-63
2023/05/26 04:03:56;;;;;;;32.67;7.05;;;7.90;99.90;;;;;;5065908;28;20485;-63
2023/05/26 04:06:25;;;;;;;28.90;6.18;;;8.00;99.90;;;;;;5039552;28;20079;-65
2023/05/26 04:08:50;;;;;;;28.88;5.93;;;8.10;99.90;;;;;;5044208;28;20111;-63
2023/05/26 04:11:17;;;;;;;32.95;6.70;;;8.10;99.90;;;;;;5045889;28;20037;-63
2023/05/26 04:13:43;;;;;;;27.40;5.63;;;8.30;99.90;;;;;;5044209;28;20636;-65
2023/05/26 04:16:08;;;;;;;27.83;6.38;;;8.40;99.90;;;;;;5044713;28;20044;-63
2023/05/26 04:18:36;;;;;;;37.15;7.10;;;8.60;99.90;;;;;;5045422;28;20049;-65
2023/05/26 04:21:02;;;;;;;34.05;5.90;;;8.80;99.90;;;;;;5044228;28;20408;-64
2023/05/26 04:23:28;;;;;;;26.92;5.85;;;8.90;99.90;;;;;;5043901;28;20073;-65
2023/05/26 04:25:55;;;;;;;22.77;5.28;;;9.00;99.90;;;;;;5045279;28;20040;-64
2023/05/26 04:28:21;;;;;;;26.70;5.15;;;9.20;99.90;;;;;;5027093;28;20378;-66
2023/05/26 04:30:47;;;;;;;27.27;6.57;;;9.30;99.90;;;;;;5044617;28;20098;-67
2023/05/26 04:33:15;;;;;;;42.42;7.45;;;9.50;99.90;;;;;;5060269;28;20037;-64
2023/05/26 04:35:41;;;;;;;28.38;6.15;;;9.60;99.90;;;;;;5058303;28;20029;-66
2023/05/26 04:38:07;;;;;;;37.95;6.15;;;9.80;99.90;;;;;;5044850;28;20280;-64
2023/05/26 04:40:32;;;;;;;37.70;6.57;;;9.90;99.90;;;;;;5063431;28;20120;-65
2023/05/26 04:43:00;;;;;;;32.58;5.65;;;9.90;99.90;;;;;;5063151;28;20036;-65
2023/05/26 04:45:26;;;;;;;27.63;6.22;;;10.00;99.90;;;;;;5046394;28;20110;-64
2023/05/26 04:47:54;;;;;;;30.60;6.22;;;10.20;99.90;;;;;;5045028;28;20064;-64
2023/05/26 04:50:23;;;;;;;31.65;6.00;;;10.30;99.90;;;;;;5042814;28;20060;-63
2023/05/26 04:52:52;;;;;;;36.10;6.25;;;10.50;99.90;;;;;;5042872;28;20211;-63
2023/05/26 04:55:18;;;;;;;30.05;6.38;;;10.40;99.90;;;;;;5043207;28;20037;-66
2023/05/26 04:57:44;;;;;;;34.28;6.13;;;10.30;99.90;;;;;;5043459;28;20138;-64
2023/05/26 05:00:13;;;;;;;34.40;6.35;;;10.20;99.90;;;;;;5043196;28;20037;-64
2023/05/26 05:02:40;;;;;;;29.30;6.05;;;10.20;99.90;;;;;;5052862;28;20514;-66
2023/05/26 05:05:05;;;;;;;39.85;6.25;;;10.10;99.90;;;;;;5062600;28;20074;-64
2023/05/26 05:07:32;;;;;;;31.80;5.38;;;10.00;99.90;;;;;;5056740;28;20075;-63
2023/05/26 05:09:57;;;;;;;32.38;5.70;;;9.90;99.90;;;;;;5043569;28;20045;-68
2023/05/26 05:12:23;;;;;;;26.95;6.13;;;9.90;99.90;;;;;;5043180;28;20036;-65
2023/05/26 05:14:50;;;;;;;30.55;6.00;;;9.80;99.90;;;;;;5055491;28;20028;-63
2023/05/26 05:17:17;;;;;;;33.55;6.20;;;9.70;99.90;;;;;;5062541;28;20040;-65
2023/05/26 05:19:43;;;;;;;35.55;6.32;;;9.60;99.90;;;;;;5062629;28;20044;-63
2023/05/26 05:22:08;;;;;;;35.92;6.50;;;9.60;99.90;;;;;;5061611;28;20546;-64
2023/05/26 05:24:34;;;;;;;27.15;6.32;;;9.60;99.90;;;;;;5063083;28;20098;-66
2023/05/26 05:27:01;;;;;;;38.80;9.82;;;9.70;99.90;;;;;;5062290;28;20037;-65
2023/05/26 05:29:27;;;;;;;32.05;6.50;;;9.80;99.90;;;;;;5061282;28;20075;-65
2023/05/26 05:31:53;;;;;;;31.52;6.28;;;9.90;99.90;;;;;;5059463;28;20644;-62
2023/05/26 05:34:18;;;;;;;27.60;6.18;;;10.10;99.90;;;;;;5064237;28;20428;-64
2023/05/26 05:36:44;;;;;;;33.03;6.18;;;10.40;99.90;;;;;;5055870;28;20044;-67
2023/05/26 05:39:10;;;;;;;29.63;5.75;;;10.70;99.90;;;;;;5043899;28;20049;-66
2023/05/26 05:41:35;;;;;;;41.20;6.28;;;10.80;99.90;;;;;;5042878;28;20087;-65
2023/05/26 05:44:02;;;;;;;38.75;6.95;;;10.90;99.90;;;;;;5043108;28;20048;-66
2023/05/26 05:46:27;;;;;;;31.40;5.88;;;10.90;99.90;;;;;;5056957;28;20047;-64
2023/05/26 05:48:53;;;;;;;42.38;7.40;;;11.00;99.90;;;;;;5051573;28;20041;-63
2023/05/26 05:51:19;;;;;;;37.80;6.43;;;11.00;99.90;;;;;;5041098;28;20041;-66
2023/05/26 05:53:45;;;;;;;34.08;6.47;;;10.90;99.90;;;;;;5043399;28;20083;-63
2023/05/26 05:56:11;;;;;;;30.25;6.90;;;10.80;99.90;;;;;;5043137;28;20269;-64
2023/05/26 05:58:36;;;;;;;37.53;7.05;;;10.70;99.90;;;;;;5043896;28;20073;-63
2023/05/26 06:01:02;;;;;;;42.25;6.90;;;10.60;99.90;;;;;;5048990;28;20045;-64
2023/05/26 06:03:27;;;;;;;36.33;7.13;;;10.60;99.90;;;;;;5043015;28;20076;-62
2023/05/26 06:05:53;;;;;;;33.55;6.30;;;10.50;99.90;;;;;;5031863;28;20603;-64
2023/05/26 06:08:19;;;;;;;32.80;6.78;;;10.40;99.90;;;;;;5045561;28;20048;-64
2023/05/26 06:10:44;;;;;;;39.13;6.78;;;10.40;99.90;;;;;;5065957;28;20621;-67
2023/05/26 06:13:10;;;;;;;32.78;7.03;;;10.40;99.90;;;;;;5062989;28;20040;-66
2023/05/26 06:15:36;;;;;;;27.15;5.35;;;10.40;99.90;;;;;;5045787;28;20067;-64
2023/05/26 06:18:02;;;;;;;34.75;5.80;;;10.40;99.90;;;;;;5067178;28;20561;-65
2023/05/26 06:20:27;;;;;;;30.80;6.03;;;10.50;99.90;;;;;;5066847;28;20036;-65
2023/05/26 06:22:53;;;;;;;35.72;6.05;;;10.50;99.90;;;;;;5063905;28;20070;-62
2023/05/26 06:25:18;;;;;;;33.80;5.30;;;10.60;99.90;;;;;;5057166;28;20048;-65
2023/05/26 06:27:44;;;;;;;30.05;6.28;;;10.60;99.90;;;;;;5061070;28;20135;-65
2023/05/26 06:30:10;;;;;;;32.92;5.70;;;10.70;99.90;;;;;;5066133;28;20517;-64
2023/05/26 06:32:36;;;;;;;30.23;5.20;;;10.70;99.90;;;;;;5083750;28;20040;-64
2023/05/26 06:35:01;;;;;;;30.85;6.25;;;10.80;99.90;;;;;;5086192;28;20036;-64
2023/05/26 06:37:27;;;;;;;23.10;5.32;;;10.80;99.90;;;;;;5072261;28;20531;-65
2023/05/26 06:39:53;;;;;;;30.27;5.80;;;10.90;99.90;;;;;;5047330;28;20041;-64
2023/05/26 06:42:18;;;;;;;22.60;4.90;;;11.00;99.90;;;;;;5046941;28;20051;-66
2023/05/26 06:44:44;;;;;;;29.63;5.88;;;11.20;99.90;;;;;;5045767;28;20052;-63
2023/05/26 06:47:09;;;;;;;29.80;5.38;;;11.30;99.90;;;;;;5045266;28;20052;-65
2023/05/26 06:49:35;;;;;;;31.48;5.95;;;11.30;99.90;;;;;;5046059;28;20049;-64
2023/05/26 06:52:01;;;;;;;20.48;4.53;;;11.50;99.90;;;;;;5045442;28;20606;-63
2023/05/26 06:54:26;;;;;;;30.20;5.80;;;11.80;99.90;;;;;;5045858;28;20128;-64
2023/05/26 06:56:52;;;;;;;24.10;5.00;;;12.10;99.90;;;;;;5047377;28;20719;-64
2023/05/26 06:59:17;;;;;;;26.30;5.22;;;12.40;99.90;;;;;;5046864;28;20057;-62
2023/05/26 07:01:44;;;;;;;24.70;4.68;;;12.60;99.90;;;;;;5045517;28;20080;-64
2023/05/26 07:04:10;;;;;;;32.53;5.22;;;12.70;99.90;;;;;;5042761;28;20126;-66
2023/05/26 07:06:36;;;;;;;25.40;5.45;;;12.70;99.90;;;;;;5063367;28;20040;-64
2023/05/26 07:09:02;;;;;;;23.20;5.28;;;12.90;99.90;;;;;;5047526;28;20438;-64
2023/05/26 07:11:27;;;;;;;24.25;4.68;;;12.90;99.90;;;;;;5045442;28;20037;-67
2023/05/26 07:13:53;;;;;;;21.95;4.50;;;12.80;99.90;;;;;;5045290;28;20427;-63
2023/05/26 07:16:19;;;;;;;21.23;4.43;;;12.80;99.90;;;;;;5044909;28;20044;-65
2023/05/26 07:18:45;;;;;;;24.63;4.60;;;12.70;99.90;;;;;;5045744;28;20053;-66
2023/05/26 07:21:10;;;;;;;28.88;4.80;;;12.80;99.90;;;;;;5046520;28;20036;-62
2023/05/26 07:23:36;;;;;;;27.15;5.85;;;12.70;99.40;;;;;;5050591;28;20068;-63
2023/05/26 07:26:01;;;;;;;23.60;5.13;;;12.70;99.50;;;;;;5048574;28;20044;-65
2023/05/26 07:28:27;;;;;;;20.77;4.50;;;12.70;99.90;;;;;;5046960;28;20127;-66
2023/05/26 07:30:52;;;;;;;26.85;4.20;;;12.80;99.90;;;;;;5038719;28;20093;-66
2023/05/26 07:33:18;;;;;;;25.40;5.68;;;12.90;97.40;;;;;;5050639;28;20417;-64
2023/05/26 07:35:43;;;;;;;21.73;4.47;;;12.80;98.30;;;;;;5054116;28;20065;-67
2023/05/26 07:38:09;;;;;;;16.70;3.75;;;12.80;98.00;;;;;;5046133;28;20028;-66
2023/05/26 07:40:35;;;;;;;23.13;4.32;;;12.80;97.70;;;;;;5055743;28;20093;-64
2023/05/26 07:43:04;;;;;;;23.90;3.60;;;12.90;97.90;;;;;;5050436;28;20108;-63
2023/05/26 07:45:32;;;;;;;21.48;4.03;;;12.80;97.50;;;;;;5044631;28;20389;-64
2023/05/26 07:47:58;;;;;;;22.25;4.32;;;12.80;97.80;;;;;;5046322;28;20037;-65
2023/05/26 07:50:24;;;;;;;18.15;3.92;;;12.90;98.10;;;;;;5044597;28;20730;-66
2023/05/26 07:52:49;;;;;;;16.55;3.83;;;12.90;98.60;;;;;;5044807;28;20033;-65
2023/05/26 07:55:15;;;;;;;24.45;4.90;;;12.90;98.20;;;;;;5044704;28;20049;-64
2023/05/26 07:57:40;;;;;;;29.42;4.72;;;13.00;97.80;;;;;;5045013;28;20057;-64
2023/05/26 08:00:07;;;;;;;31.02;4.88;;;13.00;97.50;;;;;;5044222;28;20066;-66
2023/05/26 08:02:32;;;;;;;22.50;4.45;;;12.90;97.90;;;;;;5044492;28;20135;-65
2023/05/26 08:04:58;;;;;;;19.75;4.22;;;13.10;98.50;;;;;;5045994;28;20494;-63
2023/05/26 08:07:23;;;;;;;20.95;4.38;;;13.30;98.10;;;;;;5046123;28;20518;-66
2023/05/26 08:09:49;;;;;;;24.25;4.13;;;13.40;97.80;;;;;;5045944;28;20049;-65
2023/05/26 08:12:14;;;;;;;20.45;4.20;;;13.70;97.80;;;;;;5044776;28;20075;-63
2023/05/26 08:14:40;;;;;;;24.55;4.82;;;13.70;97.10;;;;;;5043974;28;20705;-62
2023/05/26 08:17:06;;;;;;;22.08;4.60;;;13.70;96.80;;;;;;5060754;28;20055;-65
2023/05/26 08:19:31;;;;;;;23.92;4.18;;;13.60;96.20;;;;;;5044886;28;20055;-63
2023/05/26 08:21:57;;;;;;;17.42;4.28;;;13.80;96.30;;;;;;5043847;28;20047;-63
2023/05/26 08:24:24;;;;;;;16.67;4.07;;;14.00;96.20;;;;;;5045632;28;20545;-64
2023/05/26 08:26:50;;;;;;;25.65;5.05;;;13.90;95.90;;;;;;5044702;28;20041;-63
2023/05/26 08:29:16;;;;;;;16.35;3.65;;;13.70;96.50;;;;;;5044148;28;20082;-66
2023/05/26 08:31:41;;;;;;;21.90;3.83;;;13.80;97.00;;;;;;5045111;28;20443;-62
2023/05/26 08:34:07;;;;;;;24.10;4.18;;;13.80;96.30;;;;;;5044143;28;20037;-65
2023/05/26 08:36:33;;;;;;;22.48;4.18;;;13.80;96.40;;;;;;5043795;28;20456;-65
2023/05/26 08:38:59;;;;;;;23.52;4.72;;;13.80;96.50;;;;;;5044234;28;20052;-63
2023/05/26 08:41:30;;;;;;;23.63;4.18;;;13.80;96.30;;;;;;5043859;28;20091;-65
2023/05/26 08:44:01;;;;;;;19.15;4.47;;;13.80;95.90;;;;;;5060716;28;20101;-62
2023/05/26 08:46:28;;;;;;;23.38;4.20;;;13.60;95.40;;;;;;5045387;28;20115;-66
2023/05/26 08:48:55;;;;;;;18.85;4.25;;;13.60;96.10;;;;;;5043868;28;20045;-64
2023/05/26 08:51:20;;;;;;;15.20;4.00;;;13.60;96.20;;;;;;5043579;28;20120;-66
2023/05/26 08:53:48;;;;;;;19.95;3.85;;;13.50;95.60;;;;;;5043837;28;20606;-65
2023/05/26 08:56:14;;;;;;;26.73;4.28;;;13.50;95.60;;;;;;5045209;28;20036;-65
2023/05/26 08:58:43;;;;;;;21.20;3.95;;;13.50;95.90;;;;;;5043729;28;20060;-63
2023/05/26 09:01:09;;;;;;;19.00;3.92;;;13.60;96.00;;;;;;5043438;28;20044;-64
2023/05/26 09:03:35;;;;;;;19.70;3.72;;;13.60;95.50;;;;;;5043731;28;20183;-63
2023/05/26 09:06:02;;;;;;;22.67;4.40;;;13.60;96.00;;;;;;5043526;28;20128;-65
2023/05/26 09:08:28;;;;;;;21.13;3.95;;;13.70;96.30;;;;;;5036405;28;20056;-64
2023/05/26 09:10:54;;;;;;;17.00;4.15;;;13.70;96.30;;;;;;5044095;28;20040;-67
2023/05/26 09:13:21;;;;;;;20.75;4.00;;;13.90;96.60;;;;;;5045024;28;20124;-63
2023/05/26 09:15:52;;;;;;;20.67;4.00;;;13.90;96.10;;;;;;5043393;28;20041;-66
2023/05/26 09:18:18;;;;;;;20.15;3.70;;;13.90;95.50;;;;;;5044917;28;20036;-62
2023/05/26 09:20:46;;;;;;;17.80;3.72;;;13.80;95.60;;;;;;5043268;28;20060;-63
2023/05/26 09:23:17;;;;;;;18.67;3.90;;;13.70;95.20;;;;;;5043612;28;20539;-69
2023/05/26 09:25:45;;;;;;;20.80;3.83;;;13.70;95.60;;;;;;5044978;28;20109;-60
2023/05/26 09:28:14;;;;;;;17.33;3.42;;;13.60;95.70;;;;;;5060564;28;20066;-67
2023/05/26 09:30:41;;;;;;;21.20;3.88;;;13.60;96.10;;;;;;5045191;28;20528;-65
2023/05/26 09:33:10;;;;;;;19.55;4.47;;;13.80;96.50;;;;;;5044116;28;20076;-67
2023/05/26 09:35:38;;;;;;;21.15;4.50;;;13.90;95.80;;;;;;5043473;28;20040;-66
2023/05/26 09:38:05;;;;;;;21.25;4.25;;;14.00;95.80;;;;;;5043710;28;20037;-62
2023/05/26 09:40:31;;;;;;;14.07;3.78;;;14.20;95.80;;;;;;5043313;28;20094;-66
2023/05/26 09:42:57;;;;;;;19.95;4.25;;;14.20;95.60;;;;;;5045586;28;20583;-63
2023/05/26 09:45:23;;;;;;;16.90;3.90;;;14.30;95.70;;;;;;5047245;28;20059;-65
2023/05/26 09:47:57;;;;;;;27.10;4.78;;;14.20;95.80;;;;;;5047031;28;20047;-65
2023/05/26 09:50:24;;;;;;;18.98;3.60;;;14.30;96.40;;;;;;5046790;28;20102;-64
2023/05/26 09:52:50;;;;;;;24.35;4.88;;;14.30;95.90;;;;;;5047238;28;20102;-64
2023/05/26 09:55:19;;;;;;;18.27;4.20;;;14.20;96.20;;;;;;5047140;28;20127;-66
2023/05/26 09:57:46;;;;;;;22.15;4.82;;;14.20;95.40;;;;;;5047039;28;20064;-64
2023/05/26 10:00:16;;;;;;;22.45;4.25;;;14.40;96.20;;;;;;5047984;28;20046;-65
2023/05/26 10:02:42;;;;;;;17.70;4.15;;;14.50;95.70;;;;;;5046971;28;20059;-64
2023/05/26 10:05:10;;;;;;;19.08;3.83;;;14.50;95.30;;;;;;5054148;28;20044;-64
2023/05/26 10:07:37;;;;;;;22.80;4.25;;;14.40;94.90;;;;;;5043755;28;20044;-64
2023/05/26 10:10:03;;;;;;;23.17;4.65;;;14.30;95.60;;;;;;5046766;28;20045;-64
2023/05/26 10:12:33;;;;;;;19.92;3.92;;;14.40;96.40;;;;;;5048354;28;20484;-66
2023/05/26 10:14:59;;;;;;;22.83;4.63;;;14.40;96.30;;;;;;5059145;28;20091;-66
2023/05/26 10:17:26;;;;;;;19.50;4.03;;;14.20;95.70;;;;;;5066592;28;20045;-65
2023/05/26 10:19:53;;;;;;;21.08;3.75;;;14.30;95.90;;;;;;5062599;28;20849;-65
2023/05/26 10:22:57;;;;;;;22.60;4.57;;;14.40;95.60;;;;;;5046462;28;20041;-66
2023/05/26 10:25:45;;;;;;;19.08;3.47;;;14.50;95.60;;;;;;5037399;28;20049;-67
2023/05/26 10:29:03;;;;;;;19.88;3.75;;;14.50;95.90;;;;;;5048002;28;20415;-65
2023/05/26 10:31:36;;;;;;;21.13;4.30;;;14.50;95.70;;;;;;5047619;28;20048;-62
2023/05/26 10:34:35;;;;;;;16.83;4.22;;;14.40;95.60;;;;;;5037236;28;20565;-66
2023/05/26 10:37:02;;;;;;;17.45;3.92;;;14.30;95.40;;;;;;5036643;28;20060;-64
2023/05/26 10:39:27;;;;;;;17.27;4.28;;;14.30;96.00;;;;;;5046534;28;20045;-64
2023/05/26 10:41:53;;;;;;;21.73;4.53;;;14.20;96.00;;;;;;5046141;28;20049;-65
2023/05/26 10:44:40;;;;;;;18.95;3.92;;;14.30;95.90;;;;;;5063308;28;20534;-65
2023/05/26 10:47:06;;;;;;;19.83;4.38;;;14.40;95.50;;;;;;5047487;28;20041;-63
2023/05/26 10:49:35;;;;;;;24.65;5.32;;;14.30;95.40;;;;;;5047176;28;20053;-63
2023/05/26 10:52:12;;;;;;;22.98;4.15;;;14.30;95.90;;;;;;5045484;28;20032;-67
2023/05/26 10:54:37;;;;;;;19.90;3.95;;;14.40;95.80;;;;;;5045779;28;20172;-65
2023/05/26 10:57:03;;;;;;;23.80;4.13;;;14.20;95.60;;;;;;5045723;28;20518;-67
2023/05/26 10:59:34;;;;;;;21.33;5.20;;;14.40;96.00;;;;;;5045268;28;20047;-64
2023/05/26 11:02:05;;;;;;;19.02;3.95;;;14.50;95.60;;;;;;5047093;28;20041;-66
2023/05/26 11:05:01;;;;;;;20.25;4.53;;;14.60;95.60;;;;;;5046020;28;20610;-66
2023/05/26 11:07:28;;;;;;;15.32;3.80;;;14.50;94.30;;;;;;5041203;28;20061;-66
2023/05/26 11:09:59;;;;;;;24.00;4.13;;;14.40;94.90;;;;;;5028995;28;20044;-63
2023/05/26 11:12:24;;;;;;;22.83;4.28;;;14.30;95.10;;;;;;5045448;28;20045;-64
2023/05/26 11:14:50;;;;;;;20.05;4.57;;;14.40;95.10;;;;;;5047043;28;20159;-62
2023/05/26 11:17:19;;;;;;;19.90;4.35;;;14.50;95.10;;;;;;5046477;28;20136;-63
2023/05/26 11:19:58;;;;;;;19.42;3.92;;;14.50;95.10;;;;;;5045745;28;20565;-62
2023/05/26 11:22:25;;;;;;;22.10;4.35;;;14.60;94.70;;;;;;5045035;28;20040;-65
2023/05/26 11:24:52;;;;;;;19.60;3.50;;;14.60;95.40;;;;;;5045427;28;20191;-60
2023/05/26 11:27:18;;;;;;;19.73;3.85;;;14.60;94.40;;;;;;5045272;28;20112;-65
2023/05/26 11:29:48;;;;;;;21.02;4.65;;;14.70;94.70;;;;;;5045247;28;20119;-66
2023/05/26 11:32:13;;;;;;;24.80;5.05;;;14.70;94.80;;;;;;5046360;28;20120;-62
2023/05/26 11:34:40;;;;;;;24.65;4.38;;;14.60;94.80;;;;;;5062544;28;20556;-65
2023/05/26 11:37:07;;;;;;;17.33;4.32;;;14.70;95.90;;;;;;5045327;28;20045;-66
2023/05/26 11:39:34;;;;;;;23.80;4.97;;;14.70;95.90;;;;;;5045124;28;20080;-68
2023/05/26 11:42:10;;;;;;;21.80;4.97;;;14.80;96.20;;;;;;5045182;28;20049;-67
2023/05/26 11:44:37;;;;;;;23.88;4.90;;;14.90;96.20;;;;;;5045058;28;20551;-64
2023/05/26 11:47:04;;;;;;;22.52;4.85;;;14.90;96.70;;;;;;5046143;28;20110;-64
2023/05/26 11:49:30;;;;;;;22.05;4.75;;;15.00;96.70;;;;;;5044882;28;20129;-66
2023/05/26 11:51:56;;;;;;;26.88;5.68;;;15.00;96.60;;;;;;5044291;28;20116;-68
2023/05/26 11:54:22;;;;;;;23.48;5.18;;;14.90;96.30;;;;;;5028608;28;20317;-63
2023/05/26 11:56:47;;;;;;;23.55;5.68;;;14.90;96.70;;;;;;5044832;28;20079;-66
2023/05/26 11:59:20;;;;;;;25.92;5.07;;;14.90;96.50;;;;;;5044585;28;20612;-66
2023/05/26 12:01:47;;;;;;;20.95;5.15;;;14.90;95.50;;;;;;5045624;28;20095;-66
2023/05/26 12:04:13;;;;;;;26.15;4.90;;;15.00;95.40;;;;;;5044731;28;20045;-65
2023/05/26 12:06:41;;;;;;;25.10;5.60;;;15.10;95.90;;;;;;5060555;28;20037;-65
2023/05/26 12:09:19;;;;;;;19.08;4.78;;;15.00;96.10;;;;;;5044392;28;20055;-66
2023/05/26 12:11:46;;;;;;;22.75;4.65;;;15.00;96.00;;;;;;5044494;28;20043;-65
2023/05/26 12:14:13;;;;;;;25.60;4.80;;;14.70;96.00;;;;;;5044761;28;20029;-66
2023/05/26 12:16:42;;;;;;;27.17;5.20;;;14.70;95.70;;;;;;5045955;28;20041;-63
2023/05/26 12:19:12;;;;;;;21.00;5.18;;;14.50;96.00;;;;;;5044800;28;20492;-63
2023/05/26 12:21:46;;;;;;;23.92;5.22;;;14.50;96.20;;;;;;5044084;28;20080;-64
2023/05/26 12:24:13;;;;;;;31.42;5.28;;;14.50;96.60;;;;;;5060973;28;20132;-65
2023/05/26 12:26:40;;;;;;;17.73;4.07;;;14.50;96.60;;;;;;5027641;28;20094;-62
2023/05/26 12:29:16;;;;;;;20.90;4.78;;;14.50;96.30;;;;;;5044258;28;20033;-64
2023/05/26 12:31:52;;;;;;;23.58;4.82;;;14.50;96.00;;;;;;5045540;28;20033;-66
2023/05/26 12:34:27;;;;;;;26.25;5.15;;;14.50;96.80;;;;;;5045424;28;20115;-64
2023/05/26 12:36:53;;;;;;;17.17;4.85;;;14.60;96.30;;;;;;5044038;28;20068;-63
2023/05/26 12:39:19;;;;;;;22.80;4.35;;;14.60;95.80;;;;;;5045506;28;20444;-66
2023/05/26 12:41:46;;;;;;;17.05;4.68;;;14.70;95.20;;;;;;5044183;28;20522;-66
2023/05/26 12:44:15;;;;;;;21.00;4.65;;;14.60;94.70;;;;;;5043980;28;20048;-63